EGPE/INV METAR and TAF weather

Enter ICAO airport designator
Station Type Date Time Source
EGPE METAR 2020/01/28 04:50 UTC NOAA

EGPE 280450Z 21005KT 9999 -SHRASN FEW019 SCT043 01/00 Q0982


Station Type Date Time Source
EGPE Decoded METAR 2020/01/28 04:50 UTC NOAA

Inverness / Dalcross, United Kingdom (EGPE) 57-32N 004-03W 0M
Jan 27, 2020 - 11:50 PM EST / 2020.01.28 0450 UTC
Wind: from the SSW (210 degrees) at 6 MPH (5 KT):0
Visibility: greater than 7 mile(s):0
Sky conditions: partly cloudy
Weather: light rain showers, snow
Temperature: 33 F (1 C)
Windchill: 26 F (-3 C):1
Dew Point: 32 F (0 C)
Relative Humidity: 93%
Pressure (altimeter): 29.00 in. Hg (0982 hPa)
ob: EGPE 280450Z 21005KT 9999 -SHRASN FEW019 SCT043 01/00 Q0982
cycle: 5

Station Type Date Time Source
EGPE TAF UTC NOAA

Error!

Example: see airport list